Terminal Aerodrome Forecast
Issued by NWS

Home | Current Version | Previous Version | Text Only | Print | Product List | Glossary On
Versions: 1 2 3 4 5 6 7 8 9 10 11 12 13
000
FTUS44 KBMX 291700
TAFANB
TAF
KANB 291730Z 2918/3018 20008KT P6SM SCT035 BKN100
     FM300200 30007G15KT 6SM BR VCSH OVC015
      TEMPO 3004/3007 OVC007
     FM300800 34006KT P6SM OVC050
     FM301500 34011KT P6SM SCT050 BKN250=

USA.gov is the U.S. government's official web portal to all federal, state and local government web resources and services.